sensor_id;sensor_type;location;lat;lon;timestamp;P1;durP1;ratioP1;P2;durP2;ratioP2
25247;SDS011;13191;47.472;11.214;2024-03-08T00:00:08;17.55;;;7.75;;
25247;SDS011;13191;47.472;11.214;2024-03-08T00:02:41;26.13;;;8.50;;
25247;SDS011;13191;47.472;11.214;2024-03-08T00:05:07;25.17;;;8.48;;
25247;SDS011;13191;47.472;11.214;2024-03-08T00:07:36;23.27;;;9.63;;
25247;SDS011;13191;47.472;11.214;2024-03-08T00:10:05;17.85;;;7.13;;
25247;SDS011;13191;47.472;11.214;2024-03-08T00:12:36;21.90;;;8.30;;
25247;SDS011;13191;47.472;11.214;2024-03-08T00:15:02;17.10;;;7.07;;
25247;SDS011;13191;47.472;11.214;2024-03-08T00:17:27;24.45;;;9.27;;
25247;SDS011;13191;47.472;11.214;2024-03-08T00:19:53;26.65;;;8.65;;
25247;SDS011;13191;47.472;11.214;2024-03-08T00:22:19;18.23;;;8.00;;
25247;SDS011;13191;47.472;11.214;2024-03-08T00:24:45;20.33;;;7.45;;
25247;SDS011;13191;47.472;11.214;2024-03-08T00:27:10;18.38;;;7.60;;
25247;SDS011;13191;47.472;11.214;2024-03-08T00:29:36;21.52;;;8.07;;
25247;SDS011;13191;47.472;11.214;2024-03-08T00:32:03;16.45;;;7.45;;
25247;SDS011;13191;47.472;11.214;2024-03-08T00:34:29;19.25;;;7.15;;
25247;SDS011;13191;47.472;11.214;2024-03-08T00:36:55;18.02;;;7.07;;
25247;SDS011;13191;47.472;11.214;2024-03-08T00:39:20;22.17;;;8.48;;
25247;SDS011;13191;47.472;11.214;2024-03-08T00:41:46;25.08;;;7.32;;
25247;SDS011;13191;47.472;11.214;2024-03-08T00:44:12;17.20;;;6.85;;
25247;SDS011;13191;47.472;11.214;2024-03-08T00:46:38;17.83;;;7.65;;
25247;SDS011;13191;47.472;11.214;2024-03-08T00:49:03;19.73;;;7.07;;
25247;SDS011;13191;47.472;11.214;2024-03-08T00:51:29;18.10;;;6.80;;
25247;SDS011;13191;47.472;11.214;2024-03-08T00:53:54;15.52;;;5.93;;
25247;SDS011;13191;47.472;11.214;2024-03-08T00:56:20;15.13;;;6.00;;
25247;SDS011;13191;47.472;11.214;2024-03-08T00:58:45;17.83;;;6.60;;
25247;SDS011;13191;47.472;11.214;2024-03-08T01:01:12;17.05;;;5.70;;
25247;SDS011;13191;47.472;11.214;2024-03-08T01:03:41;16.45;;;7.32;;
25247;SDS011;13191;47.472;11.214;2024-03-08T01:06:08;24.75;;;10.25;;
25247;SDS011;13191;47.472;11.214;2024-03-08T01:08:33;15.88;;;6.90;;
25247;SDS011;13191;47.472;11.214;2024-03-08T01:10:59;17.08;;;6.05;;
25247;SDS011;13191;47.472;11.214;2024-03-08T01:13:24;16.85;;;6.55;;
25247;SDS011;13191;47.472;11.214;2024-03-08T01:15:50;16.75;;;6.25;;
25247;SDS011;13191;47.472;11.214;2024-03-08T01:18:16;12.93;;;4.72;;
25247;SDS011;13191;47.472;11.214;2024-03-08T01:20:42;15.02;;;6.00;;
25247;SDS011;13191;47.472;11.214;2024-03-08T01:23:07;18.40;;;6.53;;
25247;SDS011;13191;47.472;11.214;2024-03-08T01:25:33;14.75;;;5.43;;
25247;SDS011;13191;47.472;11.214;2024-03-08T01:27:59;12.48;;;5.53;;
25247;SDS011;13191;47.472;11.214;2024-03-08T01:30:24;15.82;;;6.00;;
25247;SDS011;13191;47.472;11.214;2024-03-08T01:32:50;17.20;;;6.00;;
25247;SDS011;13191;47.472;11.214;2024-03-08T01:35:15;10.60;;;4.47;;
25247;SDS011;13191;47.472;11.214;2024-03-08T01:37:41;6.97;;;3.60;;
25247;SDS011;13191;47.472;11.214;2024-03-08T01:40:07;12.77;;;4.55;;
25247;SDS011;13191;47.472;11.214;2024-03-08T01:42:33;13.15;;;5.95;;
25247;SDS011;13191;47.472;11.214;2024-03-08T01:45:02;13.05;;;4.65;;
25247;SDS011;13191;47.472;11.214;2024-03-08T01:47:31;11.35;;;4.82;;
25247;SDS011;13191;47.472;11.214;2024-03-08T01:49:58;11.52;;;4.65;;
25247;SDS011;13191;47.472;11.214;2024-03-08T01:52:26;9.27;;;4.03;;
25247;SDS011;13191;47.472;11.214;2024-03-08T01:54:53;13.40;;;5.80;;
25247;SDS011;13191;47.472;11.214;2024-03-08T01:57:19;9.55;;;3.67;;
25247;SDS011;13191;47.472;11.214;2024-03-08T01:59:45;11.60;;;4.13;;
25247;SDS011;13191;47.472;11.214;2024-03-08T02:02:11;11.60;;;6.13;;
25247;SDS011;13191;47.472;11.214;2024-03-08T02:04:42;12.05;;;4.78;;
25247;SDS011;13191;47.472;11.214;2024-03-08T02:07:09;10.40;;;3.83;;
25247;SDS011;13191;47.472;11.214;2024-03-08T02:09:35;10.57;;;4.28;;
25247;SDS011;13191;47.472;11.214;2024-03-08T02:12:00;12.05;;;5.55;;
25247;SDS011;13191;47.472;11.214;2024-03-08T02:14:26;12.27;;;5.60;;
25247;SDS011;13191;47.472;11.214;2024-03-08T02:16:51;11.50;;;5.22;;
25247;SDS011;13191;47.472;11.214;2024-03-08T02:19:17;10.85;;;4.43;;
25247;SDS011;13191;47.472;11.214;2024-03-08T02:21:42;13.55;;;5.22;;
25247;SDS011;13191;47.472;11.214;2024-03-08T02:24:08;12.00;;;5.45;;
25247;SDS011;13191;47.472;11.214;2024-03-08T02:26:34;15.02;;;5.95;;
25247;SDS011;13191;47.472;11.214;2024-03-08T02:28:59;17.08;;;5.18;;
25247;SDS011;13191;47.472;11.214;2024-03-08T02:31:26;13.15;;;6.60;;
25247;SDS011;13191;47.472;11.214;2024-03-08T02:33:51;9.70;;;4.35;;
25247;SDS011;13191;47.472;11.214;2024-03-08T02:36:17;14.85;;;4.80;;
25247;SDS011;13191;47.472;11.214;2024-03-08T02:38:42;10.32;;;4.40;;
25247;SDS011;13191;47.472;11.214;2024-03-08T02:41:08;14.65;;;4.78;;
25247;SDS011;13191;47.472;11.214;2024-03-08T02:43:33;11.38;;;5.45;;
25247;SDS011;13191;47.472;11.214;2024-03-08T02:45:59;8.43;;;3.78;;
25247;SDS011;13191;47.472;11.214;2024-03-08T02:48:25;13.10;;;5.30;;
25247;SDS011;13191;47.472;11.214;2024-03-08T02:50:50;9.88;;;4.05;;
25247;SDS011;13191;47.472;11.214;2024-03-08T02:53:16;9.85;;;4.68;;
25247;SDS011;13191;47.472;11.214;2024-03-08T02:55:44;14.20;;;5.32;;
25247;SDS011;13191;47.472;11.214;2024-03-08T02:58:09;13.20;;;6.18;;
25247;SDS011;13191;47.472;11.214;2024-03-08T03:00:36;8.75;;;4.47;;
25247;SDS011;13191;47.472;11.214;2024-03-08T03:03:02;13.13;;;5.55;;
25247;SDS011;13191;47.472;11.214;2024-03-08T03:05:28;13.95;;;4.85;;
25247;SDS011;13191;47.472;11.214;2024-03-08T03:07:57;8.15;;;3.47;;
25247;SDS011;13191;47.472;11.214;2024-03-08T03:10:23;10.00;;;4.15;;
25247;SDS011;13191;47.472;11.214;2024-03-08T03:12:49;8.63;;;4.40;;
25247;SDS011;13191;47.472;11.214;2024-03-08T03:15:15;9.23;;;4.80;;
25247;SDS011;13191;47.472;11.214;2024-03-08T03:17:47;9.73;;;4.75;;
25247;SDS011;13191;47.472;11.214;2024-03-08T03:20:16;13.05;;;4.43;;
25247;SDS011;13191;47.472;11.214;2024-03-08T03:22:48;8.02;;;4.22;;
25247;SDS011;13191;47.472;11.214;2024-03-08T03:25:16;11.55;;;5.90;;
25247;SDS011;13191;47.472;11.214;2024-03-08T03:27:48;11.77;;;4.75;;
25247;SDS011;13191;47.472;11.214;2024-03-08T03:30:14;9.93;;;5.00;;
25247;SDS011;13191;47.472;11.214;2024-03-08T03:32:49;8.95;;;4.00;;
25247;SDS011;13191;47.472;11.214;2024-03-08T03:35:16;10.20;;;3.75;;
25247;SDS011;13191;47.472;11.214;2024-03-08T03:37:42;12.27;;;4.00;;
25247;SDS011;13191;47.472;11.214;2024-03-08T03:40:10;15.02;;;4.45;;
25247;SDS011;13191;47.472;11.214;2024-03-08T03:42:36;10.93;;;4.43;;
25247;SDS011;13191;47.472;11.214;2024-03-08T03:45:04;13.20;;;3.75;;
25247;SDS011;13191;47.472;11.214;2024-03-08T03:47:30;12.30;;;4.18;;
25247;SDS011;13191;47.472;11.214;2024-03-08T03:49:56;6.10;;;2.80;;
25247;SDS011;13191;47.472;11.214;2024-03-08T03:52:26;11.70;;;5.32;;
25247;SDS011;13191;47.472;11.214;2024-03-08T03:54:52;15.15;;;5.30;;
25247;SDS011;13191;47.472;11.214;2024-03-08T03:57:17;10.93;;;4.55;;
25247;SDS011;13191;47.472;11.214;2024-03-08T03:59:43;9.80;;;4.90;;
25247;SDS011;13191;47.472;11.214;2024-03-08T04:02:09;11.80;;;3.28;;
25247;SDS011;13191;47.472;11.214;2024-03-08T04:04:34;8.27;;;3.85;;
25247;SDS011;13191;47.472;11.214;2024-03-08T04:07:00;8.85;;;3.40;;
25247;SDS011;13191;47.472;11.214;2024-03-08T04:09:27;8.50;;;4.07;;
25247;SDS011;13191;47.472;11.214;2024-03-08T04:11:52;8.68;;;4.18;;
25247;SDS011;13191;47.472;11.214;2024-03-08T04:14:20;12.70;;;4.93;;
25247;SDS011;13191;47.472;11.214;2024-03-08T04:16:46;13.48;;;4.13;;
25247;SDS011;13191;47.472;11.214;2024-03-08T04:19:13;7.20;;;3.28;;
25247;SDS011;13191;47.472;11.214;2024-03-08T04:21:39;8.82;;;3.75;;
25247;SDS011;13191;47.472;11.214;2024-03-08T04:24:04;7.40;;;3.33;;
25247;SDS011;13191;47.472;11.214;2024-03-08T04:26:30;10.20;;;4.18;;
25247;SDS011;13191;47.472;11.214;2024-03-08T04:28:56;12.13;;;4.32;;
25247;SDS011;13191;47.472;11.214;2024-03-08T04:31:22;11.63;;;4.03;;
25247;SDS011;13191;47.472;11.214;2024-03-08T04:33:47;10.68;;;5.55;;
25247;SDS011;13191;47.472;11.214;2024-03-08T04:36:13;10.82;;;4.30;;
25247;SDS011;13191;47.472;11.214;2024-03-08T04:38:39;10.70;;;3.88;;
25247;SDS011;13191;47.472;11.214;2024-03-08T04:41:06;10.52;;;4.18;;
25247;SDS011;13191;47.472;11.214;2024-03-08T04:43:31;8.35;;;3.40;;
25247;SDS011;13191;47.472;11.214;2024-03-08T04:45:58;9.52;;;3.55;;
25247;SDS011;13191;47.472;11.214;2024-03-08T04:48:23;9.88;;;4.03;;
25247;SDS011;13191;47.472;11.214;2024-03-08T04:50:51;11.98;;;3.70;;
25247;SDS011;13191;47.472;11.214;2024-03-08T04:53:18;8.18;;;2.90;;
25247;SDS011;13191;47.472;11.214;2024-03-08T04:55:44;10.85;;;4.05;;
25247;SDS011;13191;47.472;11.214;2024-03-08T04:58:10;8.35;;;4.45;;
25247;SDS011;13191;47.472;11.214;2024-03-08T05:00:35;8.15;;;3.78;;
25247;SDS011;13191;47.472;11.214;2024-03-08T05:03:01;12.07;;;2.88;;
25247;SDS011;13191;47.472;11.214;2024-03-08T05:05:26;9.25;;;4.60;;
25247;SDS011;13191;47.472;11.214;2024-03-08T05:07:54;12.40;;;4.85;;
25247;SDS011;13191;47.472;11.214;2024-03-08T05:10:19;6.18;;;2.60;;
25247;SDS011;13191;47.472;11.214;2024-03-08T05:12:45;8.85;;;3.08;;
25247;SDS011;13191;47.472;11.214;2024-03-08T05:15:10;8.45;;;3.13;;
25247;SDS011;13191;47.472;11.214;2024-03-08T05:17:36;8.23;;;3.75;;
25247;SDS011;13191;47.472;11.214;2024-03-08T05:20:02;9.30;;;4.57;;
25247;SDS011;13191;47.472;11.214;2024-03-08T05:22:28;9.02;;;3.30;;
25247;SDS011;13191;47.472;11.214;2024-03-08T05:24:54;9.65;;;3.50;;
25247;SDS011;13191;47.472;11.214;2024-03-08T05:27:20;6.75;;;3.08;;
25247;SDS011;13191;47.472;11.214;2024-03-08T05:29:46;9.32;;;3.65;;
25247;SDS011;13191;47.472;11.214;2024-03-08T05:32:11;10.70;;;3.38;;
25247;SDS011;13191;47.472;11.214;2024-03-08T05:34:37;7.32;;;3.67;;
25247;SDS011;13191;47.472;11.214;2024-03-08T05:37:03;8.93;;;3.22;;
25247;SDS011;13191;47.472;11.214;2024-03-08T05:39:29;7.35;;;3.28;;
25247;SDS011;13191;47.472;11.214;2024-03-08T05:41:54;8.00;;;3.72;;
25247;SDS011;13191;47.472;11.214;2024-03-08T05:44:20;6.97;;;3.35;;
25247;SDS011;13191;47.472;11.214;2024-03-08T05:46:46;11.05;;;3.42;;
25247;SDS011;13191;47.472;11.214;2024-03-08T05:49:12;7.65;;;3.35;;
25247;SDS011;13191;47.472;11.214;2024-03-08T05:51:38;7.50;;;3.05;;
25247;SDS011;13191;47.472;11.214;2024-03-08T05:54:05;9.52;;;3.53;;
25247;SDS011;13191;47.472;11.214;2024-03-08T05:56:32;8.43;;;3.08;;
25247;SDS011;13191;47.472;11.214;2024-03-08T05:58:58;9.35;;;3.05;;
25247;SDS011;13191;47.472;11.214;2024-03-08T06:01:27;8.05;;;3.25;;
25247;SDS011;13191;47.472;11.214;2024-03-08T06:03:53;7.28;;;3.35;;
25247;SDS011;13191;47.472;11.214;2024-03-08T06:06:21;9.20;;;3.60;;
25247;SDS011;13191;47.472;11.214;2024-03-08T06:08:47;10.35;;;4.20;;
25247;SDS011;13191;47.472;11.214;2024-03-08T06:11:16;6.93;;;3.53;;
25247;SDS011;13191;47.472;11.214;2024-03-08T06:13:43;10.52;;;3.67;;
25247;SDS011;13191;47.472;11.214;2024-03-08T06:16:09;9.85;;;3.83;;
25247;SDS011;13191;47.472;11.214;2024-03-08T06:18:35;12.30;;;4.72;;
25247;SDS011;13191;47.472;11.214;2024-03-08T06:21:04;9.15;;;3.17;;
25247;SDS011;13191;47.472;11.214;2024-03-08T06:23:33;9.10;;;3.90;;
25247;SDS011;13191;47.472;11.214;2024-03-08T06:26:03;11.32;;;3.60;;
25247;SDS011;13191;47.472;11.214;2024-03-08T06:28:29;8.93;;;3.20;;
25247;SDS011;13191;47.472;11.214;2024-03-08T06:30:55;4.88;;;2.38;;
25247;SDS011;13191;47.472;11.214;2024-03-08T06:33:21;10.23;;;3.17;;
25247;SDS011;13191;47.472;11.214;2024-03-08T06:35:46;7.55;;;3.45;;
25247;SDS011;13191;47.472;11.214;2024-03-08T06:38:12;8.55;;;3.15;;
25247;SDS011;13191;47.472;11.214;2024-03-08T06:40:38;5.22;;;2.33;;
25247;SDS011;13191;47.472;11.214;2024-03-08T06:43:05;9.70;;;3.60;;
25247;SDS011;13191;47.472;11.214;2024-03-08T06:45:31;6.95;;;3.35;;
25247;SDS011;13191;47.472;11.214;2024-03-08T06:47:57;9.80;;;2.83;;
25247;SDS011;13191;47.472;11.214;2024-03-08T06:50:22;8.68;;;3.30;;
25247;SDS011;13191;47.472;11.214;2024-03-08T06:52:48;4.78;;;2.78;;
25247;SDS011;13191;47.472;11.214;2024-03-08T06:55:18;5.70;;;2.45;;
25247;SDS011;13191;47.472;11.214;2024-03-08T06:57:46;7.38;;;3.08;;
25247;SDS011;13191;47.472;11.214;2024-03-08T07:00:12;9.52;;;3.97;;
25247;SDS011;13191;47.472;11.214;2024-03-08T07:02:43;9.52;;;3.58;;
25247;SDS011;13191;47.472;11.214;2024-03-08T07:05:10;5.63;;;2.58;;
25247;SDS011;13191;47.472;11.214;2024-03-08T07:07:36;5.05;;;2.95;;
25247;SDS011;13191;47.472;11.214;2024-03-08T07:10:02;5.55;;;3.28;;
25247;SDS011;13191;47.472;11.214;2024-03-08T07:12:29;7.60;;;3.17;;
25247;SDS011;13191;47.472;11.214;2024-03-08T07:14:55;10.43;;;3.25;;
25247;SDS011;13191;47.472;11.214;2024-03-08T07:17:20;11.45;;;3.42;;
25247;SDS011;13191;47.472;11.214;2024-03-08T07:19:46;10.23;;;2.67;;
25247;SDS011;13191;47.472;11.214;2024-03-08T07:22:12;7.20;;;2.97;;
25247;SDS011;13191;47.472;11.214;2024-03-08T07:24:37;7.18;;;2.72;;
25247;SDS011;13191;47.472;11.214;2024-03-08T07:27:35;5.82;;;2.35;;
25247;SDS011;13191;47.472;11.214;2024-03-08T07:30:01;4.30;;;1.70;;
25247;SDS011;13191;47.472;11.214;2024-03-08T07:32:27;5.93;;;2.38;;
25247;SDS011;13191;47.472;11.214;2024-03-08T07:34:55;6.05;;;2.75;;
25247;SDS011;13191;47.472;11.214;2024-03-08T07:37:21;5.43;;;3.08;;
25247;SDS011;13191;47.472;11.214;2024-03-08T07:39:46;10.45;;;2.75;;
25247;SDS011;13191;47.472;11.214;2024-03-08T07:42:12;5.88;;;2.17;;
25247;SDS011;13191;47.472;11.214;2024-03-08T07:44:38;9.38;;;2.88;;
25247;SDS011;13191;47.472;11.214;2024-03-08T07:47:04;4.95;;;2.20;;
25247;SDS011;13191;47.472;11.214;2024-03-08T07:49:29;6.38;;;3.28;;
25247;SDS011;13191;47.472;11.214;2024-03-08T07:51:56;9.07;;;3.10;;
25247;SDS011;13191;47.472;11.214;2024-03-08T07:54:22;4.80;;;2.10;;
25247;SDS011;13191;47.472;11.214;2024-03-08T07:56:48;6.05;;;2.47;;
25247;SDS011;13191;47.472;11.214;2024-03-08T07:59:15;7.55;;;3.22;;
25247;SDS011;13191;47.472;11.214;2024-03-08T08:01:41;6.93;;;2.22;;
25247;SDS011;13191;47.472;11.214;2024-03-08T08:04:06;7.63;;;3.30;;
25247;SDS011;13191;47.472;11.214;2024-03-08T08:06:37;4.38;;;2.08;;
25247;SDS011;13191;47.472;11.214;2024-03-08T08:09:08;4.15;;;2.30;;
25247;SDS011;13191;47.472;11.214;2024-03-08T08:11:40;6.47;;;2.40;;
25247;SDS011;13191;47.472;11.214;2024-03-08T08:14:09;6.38;;;2.55;;
25247;SDS011;13191;47.472;11.214;2024-03-08T08:16:35;5.32;;;2.30;;
25247;SDS011;13191;47.472;11.214;2024-03-08T08:19:02;3.70;;;1.77;;
25247;SDS011;13191;47.472;11.214;2024-03-08T08:21:32;5.90;;;2.77;;
25247;SDS011;13191;47.472;11.214;2024-03-08T08:24:04;3.17;;;2.13;;
25247;SDS011;13191;47.472;11.214;2024-03-08T08:26:29;4.60;;;2.25;;
25247;SDS011;13191;47.472;11.214;2024-03-08T08:28:55;10.23;;;3.03;;
25247;SDS011;13191;47.472;11.214;2024-03-08T08:31:21;3.15;;;1.88;;
25247;SDS011;13191;47.472;11.214;2024-03-08T08:33:46;9.52;;;2.78;;
25247;SDS011;13191;47.472;11.214;2024-03-08T08:36:13;5.25;;;2.05;;
25247;SDS011;13191;47.472;11.214;2024-03-08T08:38:39;3.92;;;1.88;;
25247;SDS011;13191;47.472;11.214;2024-03-08T08:41:07;5.75;;;2.15;;
25247;SDS011;13191;47.472;11.214;2024-03-08T08:43:34;7.05;;;2.45;;
25247;SDS011;13191;47.472;11.214;2024-03-08T08:46:00;6.63;;;2.42;;
25247;SDS011;13191;47.472;11.214;2024-03-08T08:48:26;4.40;;;2.13;;
25247;SDS011;13191;47.472;11.214;2024-03-08T08:50:53;6.25;;;1.90;;
25247;SDS011;13191;47.472;11.214;2024-03-08T08:53:18;4.47;;;2.15;;
25247;SDS011;13191;47.472;11.214;2024-03-08T08:55:44;7.47;;;2.03;;
25247;SDS011;13191;47.472;11.214;2024-03-08T08:58:10;6.03;;;2.15;;
25247;SDS011;13191;47.472;11.214;2024-03-08T09:00:36;2.90;;;1.55;;
25247;SDS011;13191;47.472;11.214;2024-03-08T09:03:02;4.20;;;1.92;;
25247;SDS011;13191;47.472;11.214;2024-03-08T09:05:27;3.42;;;1.50;;
25247;SDS011;13191;47.472;11.214;2024-03-08T09:07:53;4.28;;;2.10;;
25247;SDS011;13191;47.472;11.214;2024-03-08T09:10:19;4.97;;;2.35;;
25247;SDS011;13191;47.472;11.214;2024-03-08T09:12:46;4.07;;;1.75;;
25247;SDS011;13191;47.472;11.214;2024-03-08T09:15:12;3.97;;;1.70;;
25247;SDS011;13191;47.472;11.214;2024-03-08T09:17:38;3.40;;;1.67;;
25247;SDS011;13191;47.472;11.214;2024-03-08T09:20:08;4.32;;;1.55;;
25247;SDS011;13191;47.472;11.214;2024-03-08T09:22:40;2.83;;;1.35;;
25247;SDS011;13191;47.472;11.214;2024-03-08T09:25:08;8.05;;;2.65;;
25247;SDS011;13191;47.472;11.214;2024-03-08T09:27:34;6.20;;;1.65;;
25247;SDS011;13191;47.472;11.214;2024-03-08T09:30:00;7.22;;;1.50;;
25247;SDS011;13191;47.472;11.214;2024-03-08T09:32:26;5.25;;;1.65;;
25247;SDS011;13191;47.472;11.214;2024-03-08T09:34:51;3.47;;;1.42;;
25247;SDS011;13191;47.472;11.214;2024-03-08T09:37:17;4.72;;;1.65;;
25247;SDS011;13191;47.472;11.214;2024-03-08T09:39:43;2.65;;;1.25;;
25247;SDS011;13191;47.472;11.214;2024-03-08T09:42:09;3.40;;;1.50;;
25247;SDS011;13191;47.472;11.214;2024-03-08T09:44:35;3.55;;;1.15;;
25247;SDS011;13191;47.472;11.214;2024-03-08T09:47:01;2.92;;;1.52;;
25247;SDS011;13191;47.472;11.214;2024-03-08T09:49:28;3.25;;;1.27;;
25247;SDS011;13191;47.472;11.214;2024-03-08T09:51:54;2.92;;;1.20;;
25247;SDS011;13191;47.472;11.214;2024-03-08T09:54:20;9.65;;;2.42;;
25247;SDS011;13191;47.472;11.214;2024-03-08T09:56:47;3.65;;;1.50;;
25247;SDS011;13191;47.472;11.214;2024-03-08T09:59:14;8.13;;;1.80;;
25247;SDS011;13191;47.472;11.214;2024-03-08T10:01:59;2.60;;;1.40;;
25247;SDS011;13191;47.472;11.214;2024-03-08T10:04:25;4.20;;;1.45;;
25247;SDS011;13191;47.472;11.214;2024-03-08T10:06:55;2.72;;;1.17;;
25247;SDS011;13191;47.472;11.214;2024-03-08T10:09:24;2.35;;;1.15;;
25247;SDS011;13191;47.472;11.214;2024-03-08T10:11:53;2.20;;;1.17;;
25247;SDS011;13191;47.472;11.214;2024-03-08T10:14:27;2.22;;;1.20;;
25247;SDS011;13191;47.472;11.214;2024-03-08T10:16:53;2.63;;;1.20;;
25247;SDS011;13191;47.472;11.214;2024-03-08T10:19:19;1.60;;;0.95;;
25247;SDS011;13191;47.472;11.214;2024-03-08T10:21:51;2.00;;;0.75;;
25247;SDS011;13191;47.472;11.214;2024-03-08T10:24:18;2.60;;;1.35;;
25247;SDS011;13191;47.472;11.214;2024-03-08T10:26:44;2.83;;;1.38;;
25247;SDS011;13191;47.472;11.214;2024-03-08T10:29:10;4.78;;;1.17;;
25247;SDS011;13191;47.472;11.214;2024-03-08T10:31:44;2.03;;;0.88;;
25247;SDS011;13191;47.472;11.214;2024-03-08T10:34:10;2.72;;;1.10;;
25247;SDS011;13191;47.472;11.214;2024-03-08T10:36:35;2.75;;;1.10;;
25247;SDS011;13191;47.472;11.214;2024-03-08T10:39:05;2.72;;;0.85;;
25247;SDS011;13191;47.472;11.214;2024-03-08T10:41:56;5.53;;;1.23;;
25247;SDS011;13191;47.472;11.214;2024-03-08T10:47:03;2.47;;;0.95;;
25247;SDS011;13191;47.472;11.214;2024-03-08T10:49:55;2.05;;;0.77;;
25247;SDS011;13191;47.472;11.214;2024-03-08T10:52:46;2.58;;;0.77;;
25247;SDS011;13191;47.472;11.214;2024-03-08T10:55:16;2.58;;;1.40;;
25247;SDS011;13191;47.472;11.214;2024-03-08T10:57:44;2.50;;;0.75;;
25247;SDS011;13191;47.472;11.214;2024-03-08T11:00:10;1.73;;;0.77;;
25247;SDS011;13191;47.472;11.214;2024-03-08T11:02:38;2.72;;;1.15;;
25247;SDS011;13191;47.472;11.214;2024-03-08T11:05:04;1.50;;;0.80;;
25247;SDS011;13191;47.472;11.214;2024-03-08T11:07:33;1.27;;;0.80;;
25247;SDS011;13191;47.472;11.214;2024-03-08T11:10:03;2.60;;;1.00;;
25247;SDS011;13191;47.472;11.214;2024-03-08T11:12:36;3.05;;;1.17;;
25247;SDS011;13191;47.472;11.214;2024-03-08T11:15:03;2.40;;;1.00;;
25247;SDS011;13191;47.472;11.214;2024-03-08T11:20:04;3.40;;;1.00;;
25247;SDS011;13191;47.472;11.214;2024-03-08T11:25:33;2.38;;;0.80;;
25247;SDS011;13191;47.472;11.214;2024-03-08T11:28:07;1.23;;;0.70;;
25247;SDS011;13191;47.472;11.214;2024-03-08T11:30:35;1.95;;;0.60;;
25247;SDS011;13191;47.472;11.214;2024-03-08T11:33:03;1.38;;;0.98;;
25247;SDS011;13191;47.472;11.214;2024-03-08T11:35:29;3.78;;;1.05;;
25247;SDS011;13191;47.472;11.214;2024-03-08T11:37:54;1.67;;;0.93;;
25247;SDS011;13191;47.472;11.214;2024-03-08T11:40:25;0.90;;;0.70;;
25247;SDS011;13191;47.472;11.214;2024-03-08T11:42:51;5.38;;;1.23;;
25247;SDS011;13191;47.472;11.214;2024-03-08T11:45:17;1.65;;;0.82;;
25247;SDS011;13191;47.472;11.214;2024-03-08T11:47:43;3.38;;;0.82;;
25247;SDS011;13191;47.472;11.214;2024-03-08T11:50:11;1.88;;;0.80;;
25247;SDS011;13191;47.472;11.214;2024-03-08T11:52:37;1.25;;;0.90;;
25247;SDS011;13191;47.472;11.214;2024-03-08T11:55:03;2.28;;;0.95;;
25247;SDS011;13191;47.472;11.214;2024-03-08T11:57:30;2.10;;;0.70;;
25247;SDS011;13191;47.472;11.214;2024-03-08T11:59:57;2.42;;;1.00;;
25247;SDS011;13191;47.472;11.214;2024-03-08T12:02:23;1.60;;;0.88;;
25247;SDS011;13191;47.472;11.214;2024-03-08T12:04:56;1.08;;;0.68;;
25247;SDS011;13191;47.472;11.214;2024-03-08T12:07:24;1.92;;;0.98;;
25247;SDS011;13191;47.472;11.214;2024-03-08T12:12:47;4.07;;;1.23;;
25247;SDS011;13191;47.472;11.214;2024-03-08T12:15:17;4.80;;;1.20;;
25247;SDS011;13191;47.472;11.214;2024-03-08T12:17:49;1.88;;;1.00;;
25247;SDS011;13191;47.472;11.214;2024-03-08T12:20:19;1.00;;;0.50;;
25247;SDS011;13191;47.472;11.214;2024-03-08T12:22:57;1.95;;;1.15;;
25247;SDS011;13191;47.472;11.214;2024-03-08T12:25:33;4.88;;;0.77;;
25247;SDS011;13191;47.472;11.214;2024-03-08T12:28:08;2.25;;;1.25;;
25247;SDS011;13191;47.472;11.214;2024-03-08T12:30:35;1.33;;;0.63;;
25247;SDS011;13191;47.472;11.214;2024-03-08T12:33:17;1.92;;;0.65;;
25247;SDS011;13191;47.472;11.214;2024-03-08T12:35:50;1.60;;;0.80;;
25247;SDS011;13191;47.472;11.214;2024-03-08T12:38:18;1.25;;;0.73;;
25247;SDS011;13191;47.472;11.214;2024-03-08T12:40:49;3.63;;;0.93;;
25247;SDS011;13191;47.472;11.214;2024-03-08T12:43:15;1.20;;;0.75;;
25247;SDS011;13191;47.472;11.214;2024-03-08T12:45:41;2.45;;;1.05;;
25247;SDS011;13191;47.472;11.214;2024-03-08T12:48:12;2.00;;;0.70;;
25247;SDS011;13191;47.472;11.214;2024-03-08T12:50:40;2.47;;;0.93;;
25247;SDS011;13191;47.472;11.214;2024-03-08T12:53:08;1.17;;;0.75;;
25247;SDS011;13191;47.472;11.214;2024-03-08T12:55:33;2.33;;;0.90;;
25247;SDS011;13191;47.472;11.214;2024-03-08T12:57:59;2.03;;;0.85;;
25247;SDS011;13191;47.472;11.214;2024-03-08T13:00:25;1.05;;;0.60;;
25247;SDS011;13191;47.472;11.214;2024-03-08T13:02:53;2.42;;;1.10;;
25247;SDS011;13191;47.472;11.214;2024-03-08T13:05:19;2.28;;;0.80;;
25247;SDS011;13191;47.472;11.214;2024-03-08T13:07:45;2.90;;;0.98;;
25247;SDS011;13191;47.472;11.214;2024-03-08T13:10:14;3.58;;;0.82;;
25247;SDS011;13191;47.472;11.214;2024-03-08T13:12:43;2.92;;;1.20;;
25247;SDS011;13191;47.472;11.214;2024-03-08T13:15:09;2.33;;;0.93;;
25247;SDS011;13191;47.472;11.214;2024-03-08T13:17:45;2.72;;;0.88;;
25247;SDS011;13191;47.472;11.214;2024-03-08T13:20:14;2.28;;;0.95;;
25247;SDS011;13191;47.472;11.214;2024-03-08T13:22:45;2.30;;;0.77;;
25247;SDS011;13191;47.472;11.214;2024-03-08T13:25:11;3.03;;;0.98;;
25247;SDS011;13191;47.472;11.214;2024-03-08T13:27:38;3.42;;;1.08;;
25247;SDS011;13191;47.472;11.214;2024-03-08T13:30:14;2.25;;;0.82;;
25247;SDS011;13191;47.472;11.214;2024-03-08T13:32:43;1.58;;;0.70;;
25247;SDS011;13191;47.472;11.214;2024-03-08T13:35:09;1.70;;;0.82;;
25247;SDS011;13191;47.472;11.214;2024-03-08T13:37:39;1.63;;;0.63;;
25247;SDS011;13191;47.472;11.214;2024-03-08T13:40:05;4.80;;;0.90;;
25247;SDS011;13191;47.472;11.214;2024-03-08T13:42:35;4.00;;;0.88;;
25247;SDS011;13191;47.472;11.214;2024-03-08T13:45:03;0.93;;;0.60;;
25247;SDS011;13191;47.472;11.214;2024-03-08T13:47:30;1.58;;;0.90;;
25247;SDS011;13191;47.472;11.214;2024-03-08T13:49:56;2.17;;;0.88;;
25247;SDS011;13191;47.472;11.214;2024-03-08T13:52:22;1.10;;;0.70;;
25247;SDS011;13191;47.472;11.214;2024-03-08T13:54:49;2.25;;;0.93;;
25247;SDS011;13191;47.472;11.214;2024-03-08T13:57:16;1.33;;;0.82;;
25247;SDS011;13191;47.472;11.214;2024-03-08T13:59:43;5.20;;;1.00;;
25247;SDS011;13191;47.472;11.214;2024-03-08T14:02:09;1.63;;;0.77;;
25247;SDS011;13191;47.472;11.214;2024-03-08T14:04:38;1.73;;;0.90;;
25247;SDS011;13191;47.472;11.214;2024-03-08T14:07:05;1.15;;;0.60;;
25247;SDS011;13191;47.472;11.214;2024-03-08T14:09:33;3.00;;;0.65;;
25247;SDS011;13191;47.472;11.214;2024-03-08T14:12:02;0.55;;;0.45;;
25247;SDS011;13191;47.472;11.214;2024-03-08T14:14:32;1.98;;;0.80;;
25247;SDS011;13191;47.472;11.214;2024-03-08T14:17:03;2.63;;;0.80;;
25247;SDS011;13191;47.472;11.214;2024-03-08T14:19:29;1.30;;;0.60;;
25247;SDS011;13191;47.472;11.214;2024-03-08T14:22:01;5.20;;;0.82;;
25247;SDS011;13191;47.472;11.214;2024-03-08T14:24:29;1.33;;;0.90;;
25247;SDS011;13191;47.472;11.214;2024-03-08T14:26:55;0.93;;;0.60;;
25247;SDS011;13191;47.472;11.214;2024-03-08T14:29:23;2.78;;;0.65;;
25247;SDS011;13191;47.472;11.214;2024-03-08T14:31:50;2.35;;;0.85;;
25247;SDS011;13191;47.472;11.214;2024-03-08T14:34:16;2.40;;;0.85;;
25247;SDS011;13191;47.472;11.214;2024-03-08T14:36:41;0.85;;;0.50;;
25247;SDS011;13191;47.472;11.214;2024-03-08T14:39:08;1.67;;;0.88;;
25247;SDS011;13191;47.472;11.214;2024-03-08T14:41:33;1.65;;;0.70;;